createdAt,value
2022-11-01T00:02:06.502Z,41.58
2022-11-01T00:04:34.777Z,37.33
2022-11-01T00:07:03.211Z,32.72
2022-11-01T00:09:31.752Z,33.22
2022-11-01T00:12:00.463Z,55.75
2022-11-01T00:14:30.206Z,33.95
2022-11-01T00:16:58.468Z,29.58
2022-11-01T00:19:27.033Z,49.13
2022-11-01T00:21:55.331Z,39.42
2022-11-01T00:24:23.755Z,35.58
2022-11-01T00:26:52.110Z,38.65
2022-11-01T00:29:20.398Z,31.17
2022-11-01T00:31:50.331Z,38.08
2022-11-01T00:34:19.334Z,27.52
2022-11-01T00:36:47.547Z,35.63
2022-11-01T00:39:16.846Z,27.13
2022-11-01T00:41:45.213Z,29.52
2022-11-01T00:44:13.460Z,22.17
2022-11-01T00:46:41.795Z,28.38
2022-11-01T00:49:12.069Z,33.40
2022-11-01T00:51:40.326Z,22.60
2022-11-01T00:54:08.726Z,28.23
2022-11-01T00:56:36.991Z,33.03
2022-11-01T00:59:05.359Z,39.25
2022-11-01T01:01:33.737Z,33.50
2022-11-01T01:04:02.153Z,28.70
2022-11-01T01:06:32.029Z,42.58
2022-11-01T01:09:01.347Z,28.85
2022-11-01T01:11:29.958Z,31.42
2022-11-01T01:13:58.323Z,24.67
2022-11-01T01:16:26.649Z,25.13
2022-11-01T01:18:55.677Z,30.58
2022-11-01T01:21:24.058Z,22.05
2022-11-01T01:23:54.936Z,19.70
2022-11-01T01:26:23.361Z,20.08
2022-11-01T01:28:54.698Z,35.30
2022-11-01T01:31:23.959Z,23.02
2022-11-01T01:33:52.233Z,28.08
2022-11-01T01:36:20.552Z,26.52
2022-11-01T01:38:48.773Z,23.58
2022-11-01T01:41:35.701Z,26.85
2022-11-01T01:44:04.752Z,24.25
2022-11-01T01:46:33.047Z,26.92
2022-11-01T01:49:01.690Z,27.80
2022-11-01T01:51:31.016Z,22.15
2022-11-01T01:54:00.573Z,28.20
2022-11-01T01:56:34.762Z,20.00
2022-11-01T01:59:06.415Z,22.02
2022-11-01T02:01:37.722Z,25.90
2022-11-01T02:04:08.681Z,19.75
2022-11-01T02:06:38.078Z,26.00
2022-11-01T02:09:09.024Z,26.42
2022-11-01T02:11:38.901Z,23.48
2022-11-01T02:14:07.231Z,21.90
2022-11-01T02:16:51.552Z,24.02
2022-11-01T02:20:03.490Z,22.83
2022-11-01T02:22:55.329Z,22.20
2022-11-01T02:25:52.654Z,19.20
2022-11-01T02:28:44.715Z,25.52
2022-11-01T02:31:31.982Z,21.83
2022-11-01T02:34:06.255Z,23.50
2022-11-01T02:36:39.411Z,17.58
2022-11-01T02:39:16.584Z,26.35
2022-11-01T02:41:51.356Z,20.08
2022-11-01T02:44:25.388Z,27.45
2022-11-01T02:47:02.623Z,26.23
2022-11-01T02:49:35.400Z,22.50
2022-11-01T02:52:05.015Z,25.90
2022-11-01T02:54:35.059Z,26.33
2022-11-01T02:57:08.532Z,25.92
2022-11-01T02:59:45.266Z,28.02
2022-11-01T03:02:19.754Z,25.40
2022-11-01T03:04:49.836Z,29.80
2022-11-01T03:07:18.515Z,26.73
2022-11-01T03:09:47.014Z,38.25
2022-11-01T03:12:21.745Z,26.42
2022-11-01T03:14:57.132Z,26.05
2022-11-01T03:17:33.837Z,28.65
2022-11-01T03:20:09.749Z,34.88
2022-11-01T03:22:44.413Z,31.42
2022-11-01T03:25:32.705Z,35.83
2022-11-01T03:28:07.342Z,37.92
2022-11-01T03:30:37.259Z,31.63
2022-11-01T03:33:06.882Z,43.95
2022-11-01T03:35:39.900Z,29.77
2022-11-01T03:38:13.105Z,30.70
2022-11-01T03:40:45.904Z,31.75
2022-11-01T03:43:16.468Z,34.60
2022-11-01T03:45:45.246Z,29.17
2022-11-01T03:48:13.781Z,22.75
2022-11-01T03:50:52.209Z,31.70
2022-11-01T03:53:21.402Z,24.50
2022-11-01T03:55:50.065Z,27.33
2022-11-01T03:58:18.501Z,26.50
2022-11-01T04:00:47.863Z,25.38
2022-11-01T04:03:16.350Z,25.42
2022-11-01T04:05:47.012Z,29.42
2022-11-01T04:08:16.317Z,24.60
2022-11-01T04:10:48.009Z,32.13
2022-11-01T04:13:17.431Z,31.98
2022-11-01T04:16:07.616Z,27.65
2022-11-01T04:18:53.919Z,31.40
2022-11-01T04:21:27.551Z,29.02
2022-11-01T04:23:59.410Z,30.10
2022-11-01T04:26:29.561Z,34.40
2022-11-01T04:28:59.126Z,26.88
2022-11-01T04:31:30.122Z,29.92
2022-11-01T04:34:03.421Z,28.63
2022-11-01T04:36:34.560Z,28.38
2022-11-01T04:39:05.166Z,29.48
2022-11-01T04:41:34.437Z,30.60
2022-11-01T04:44:03.320Z,28.88
2022-11-01T04:46:32.740Z,32.72
2022-11-01T04:49:02.446Z,32.42
2022-11-01T04:52:03.316Z,28.08
2022-11-01T04:54:52.406Z,30.55
2022-11-01T04:57:41.010Z,32.03
2022-11-01T05:00:12.771Z,31.55
2022-11-01T05:02:45.684Z,41.42
2022-11-01T05:05:15.484Z,29.13
2022-11-01T05:07:47.080Z,38.10
2022-11-01T05:10:16.842Z,35.17
2022-11-01T05:12:46.633Z,38.03
2022-11-01T05:15:15.841Z,36.17
2022-11-01T05:17:44.696Z,36.88
2022-11-01T05:20:16.393Z,34.88
2022-11-01T05:23:22.600Z,34.53
2022-11-01T05:25:53.303Z,35.03
2022-11-01T05:28:23.971Z,43.22
2022-11-01T05:30:53.344Z,43.53
2022-11-01T05:33:22.533Z,37.42
2022-11-01T05:35:52.451Z,35.25
2022-11-01T05:38:21.745Z,39.15
2022-11-01T05:40:53.039Z,32.63
2022-11-01T05:43:27.268Z,42.50
2022-11-01T05:45:59.114Z,33.85
2022-11-01T05:48:29.187Z,58.15
2022-11-01T05:51:00.651Z,38.95
2022-11-01T06:18:31.750Z,36.35
2022-11-01T06:21:06.328Z,35.75
2022-11-01T06:23:41.050Z,33.53
2022-11-01T06:26:12.234Z,35.28
2022-11-01T06:28:41.975Z,33.50
2022-11-01T06:31:12.624Z,26.55
2022-11-01T06:33:46.737Z,32.10
2022-11-01T06:36:18.783Z,28.50
2022-11-01T06:38:51.194Z,34.80
2022-11-01T06:41:24.062Z,32.92
2022-11-01T06:43:53.905Z,30.77
2022-11-01T06:46:25.072Z,28.92
2022-11-01T06:48:58.242Z,31.95
2022-11-01T06:51:27.999Z,25.85
2022-11-01T06:54:00.860Z,27.98
2022-11-01T06:56:31.115Z,29.08
2022-11-01T06:59:01.230Z,25.50
2022-11-01T07:01:31.071Z,25.70
2022-11-01T07:04:03.252Z,21.88
2022-11-01T07:06:33.709Z,31.73
2022-11-01T07:09:02.723Z,24.08
2022-11-01T07:11:32.032Z,23.38
2022-11-01T07:14:14.613Z,20.55
2022-11-01T07:16:44.089Z,23.52
2022-11-01T07:19:20.279Z,20.77
2022-11-01T07:21:49.779Z,20.98
2022-11-01T07:24:21.591Z,21.83
2022-11-01T07:26:53.168Z,23.15
2022-11-01T07:29:23.457Z,24.42
2022-11-01T07:31:53.090Z,22.27
2022-11-01T07:34:24.891Z,17.38
2022-11-01T07:36:54.597Z,24.05
2022-11-01T07:39:23.946Z,20.13
2022-11-01T07:41:54.224Z,16.20
2022-11-01T07:44:22.447Z,17.50
2022-11-01T07:46:50.734Z,19.00
2022-11-01T07:49:19.051Z,19.70
2022-11-01T07:51:49.066Z,19.80
2022-11-01T07:54:17.697Z,18.00
2022-11-01T07:56:45.987Z,19.67
2022-11-01T07:59:14.225Z,23.45
2022-11-01T08:01:43.663Z,31.10
2022-11-01T08:04:12.137Z,25.60
2022-11-01T08:06:40.982Z,21.67
2022-11-01T08:09:11.096Z,20.58
2022-11-01T08:11:41.698Z,20.70
2022-11-01T08:14:12.174Z,20.98
2022-11-01T08:16:41.016Z,18.50
2022-11-01T08:19:09.285Z,26.40
2022-11-01T08:21:37.490Z,18.98
2022-11-01T08:24:06.090Z,26.70
2022-11-01T08:26:35.879Z,26.45
2022-11-01T08:29:04.115Z,22.65
2022-11-01T08:31:32.280Z,20.05
2022-11-01T08:34:00.443Z,22.58
2022-11-01T08:36:28.738Z,23.45
2022-11-01T08:38:57.730Z,22.17
2022-11-01T08:41:28.210Z,23.05
2022-11-01T08:43:59.714Z,24.23
2022-11-01T08:46:28.208Z,20.50
2022-11-01T08:48:59.354Z,22.15
2022-11-01T08:51:28.767Z,22.00
2022-11-01T08:53:58.866Z,23.20
2022-11-01T08:56:28.713Z,21.60
2022-11-01T08:58:59.188Z,20.02
2022-11-01T09:01:27.897Z,21.90
2022-11-01T09:03:58.274Z,35.28
2022-11-01T09:06:29.022Z,22.45
2022-11-01T09:09:00.408Z,27.05
2022-11-01T09:11:30.723Z,17.55
2022-11-01T09:14:01.373Z,30.77
2022-11-01T09:16:29.779Z,20.08
2022-11-01T09:19:01.755Z,19.80
2022-11-01T09:21:31.781Z,22.00
2022-11-01T09:24:00.260Z,21.05
2022-11-01T09:26:28.722Z,19.25
2022-11-01T09:28:58.551Z,17.20
2022-11-01T09:31:28.924Z,14.98
2022-11-01T09:33:57.930Z,16.92
2022-11-01T09:36:27.452Z,20.73
2022-11-01T09:38:56.693Z,17.38
2022-11-01T09:41:33.861Z,18.40
2022-11-01T09:44:04.231Z,20.30
2022-11-01T09:46:40.507Z,15.90
2022-11-01T09:49:09.913Z,20.10
2022-11-01T09:51:39.590Z,17.17
2022-11-01T09:54:08.662Z,23.02
2022-11-01T09:56:43.255Z,23.33
2022-11-01T09:59:24.213Z,18.80
2022-11-01T10:02:09.718Z,15.23
2022-11-01T10:05:08.184Z,18.38
2022-11-01T10:07:42.904Z,18.23
2022-11-01T10:10:24.396Z,16.95
2022-11-01T10:13:05.130Z,23.15
2022-11-01T10:15:43.041Z,16.17
2022-11-01T10:18:26.910Z,18.58
2022-11-01T10:20:57.748Z,21.90
2022-11-01T10:23:36.685Z,16.17
2022-11-01T10:26:05.944Z,17.30
2022-11-01T10:28:43.967Z,27.77
2022-11-01T10:31:17.381Z,15.75
2022-11-01T10:33:52.980Z,20.30
2022-11-01T10:36:24.663Z,21.40
2022-11-01T10:41:53.500Z,16.80
2022-11-01T10:44:28.112Z,19.92
2022-11-01T10:46:58.215Z,18.92
2022-11-01T10:49:52.959Z,21.48
2022-11-01T10:52:25.767Z,16.92
2022-11-01T10:54:56.234Z,18.25
2022-11-01T10:57:32.266Z,19.45
2022-11-01T11:00:04.258Z,14.57
2022-11-01T11:02:36.370Z,18.27
2022-11-01T11:05:06.587Z,15.00
2022-11-01T11:07:35.137Z,17.63
2022-11-01T11:10:04.206Z,16.40
2022-11-01T11:12:34.642Z,16.33
2022-11-01T11:15:06.452Z,13.38
2022-11-01T11:17:39.663Z,19.58
2022-11-01T11:20:11.859Z,14.40
2022-11-01T11:22:42.134Z,15.45
2022-11-01T11:25:17.034Z,16.90
2022-11-01T11:27:47.513Z,17.90
2022-11-01T11:30:28.375Z,15.67
2022-11-01T11:32:58.754Z,16.73
2022-11-01T11:35:30.437Z,15.90
2022-11-01T11:38:01.829Z,19.87
2022-11-01T11:40:42.780Z,16.30
2022-11-01T11:43:24.738Z,18.63
2022-11-01T11:46:07.138Z,15.53
2022-11-01T11:48:35.536Z,14.98
2022-11-01T11:51:07.331Z,15.35
2022-11-01T11:53:35.579Z,15.95
2022-11-01T11:56:06.727Z,17.85
2022-11-01T11:58:37.583Z,20.30
2022-11-01T12:01:08.232Z,19.70
2022-11-01T12:03:46.215Z,19.15
2022-11-01T12:06:20.560Z,19.50
2022-11-01T12:08:50.787Z,21.00
2022-11-01T12:11:19.524Z,16.98
2022-11-01T12:14:02.560Z,17.20
2022-11-01T12:16:31.525Z,15.35
2022-11-01T12:19:01.212Z,22.45
2022-11-01T12:21:35.986Z,21.98
2022-11-01T12:24:10.086Z,22.88
2022-11-01T12:26:39.266Z,26.70
2022-11-01T12:29:19.182Z,22.52
2022-11-01T12:31:49.257Z,25.95
2022-11-01T12:34:22.754Z,20.88
2022-11-01T12:36:58.851Z,33.85
2022-11-01T12:39:42.155Z,21.75
2022-11-01T12:42:16.223Z,18.67
2022-11-01T12:44:49.432Z,20.75
2022-11-01T12:47:23.310Z,18.23
2022-11-01T12:49:55.851Z,26.65
2022-11-01T12:52:32.719Z,20.75
2022-11-01T12:55:08.574Z,24.42
2022-11-01T12:57:37.034Z,19.77
2022-11-01T13:00:06.825Z,17.02
2022-11-01T13:03:05.485Z,26.25
2022-11-01T13:05:42.767Z,20.10
2022-11-01T13:08:22.706Z,20.20
2022-11-01T13:10:51.344Z,27.60
2022-11-01T13:13:27.508Z,21.20
2022-11-01T13:16:04.451Z,19.92
2022-11-01T13:18:45.139Z,24.77
2022-11-01T13:21:24.048Z,19.73
2022-11-01T13:23:58.643Z,20.60
2022-11-01T13:26:31.787Z,17.67
2022-11-01T13:31:48.713Z,22.58
2022-11-01T13:34:29.537Z,23.05
2022-11-01T13:37:06.173Z,20.85
2022-11-01T13:39:43.951Z,25.73
2022-11-01T13:42:16.171Z,21.30
2022-11-01T13:44:48.426Z,20.27
2022-11-01T13:47:25.932Z,30.67
2022-11-01T13:50:45.848Z,25.85
2022-11-01T13:53:21.925Z,21.85
2022-11-01T13:55:56.618Z,29.23
2022-11-01T13:58:26.156Z,27.33
2022-11-01T14:00:56.412Z,26.02
2022-11-01T14:03:29.487Z,27.35
2022-11-01T14:09:21.262Z,28.20
2022-11-01T14:11:53.189Z,57.40
2022-11-01T14:14:49.908Z,31.70
2022-11-01T14:17:55.987Z,28.83
2022-11-01T14:20:44.217Z,34.58
2022-11-01T14:23:52.750Z,30.98
2022-11-01T14:26:57.516Z,31.58
2022-11-01T14:29:27.364Z,33.17
2022-11-01T14:31:56.269Z,29.67
2022-11-01T14:34:28.840Z,32.05
2022-11-01T14:37:01.748Z,31.95
2022-11-01T14:39:37.592Z,34.67
2022-11-01T14:42:09.668Z,37.55
2022-11-01T14:44:45.518Z,42.90
2022-11-01T14:47:27.678Z,41.80
2022-11-01T14:50:00.208Z,47.95
2022-11-01T14:52:36.660Z,39.42
2022-11-01T14:55:13.517Z,46.75
2022-11-01T14:57:43.239Z,41.03
2022-11-01T15:00:28.926Z,69.72
2022-11-01T15:05:28.602Z,70.97
2022-11-01T15:07:59.480Z,40.88
2022-11-01T15:10:29.286Z,63.38
2022-11-01T15:13:01.104Z,48.15
2022-11-01T15:15:35.144Z,67.05
2022-11-01T15:18:07.575Z,49.58
2022-11-01T15:20:40.190Z,45.45
2022-11-01T15:23:11.967Z,48.60
2022-11-01T15:25:43.501Z,50.63
2022-11-01T15:28:21.802Z,57.13
2022-11-01T15:30:58.726Z,48.42
2022-11-01T15:33:30.745Z,44.90
2022-11-01T15:36:00.912Z,48.22
2022-11-01T15:38:30.273Z,42.60
2022-11-01T15:40:58.867Z,47.97
2022-11-01T15:43:28.546Z,53.80
2022-11-01T15:46:02.663Z,46.33
2022-11-01T15:48:34.425Z,52.13
2022-11-01T15:51:05.566Z,45.55
2022-11-01T15:53:36.649Z,51.55
2022-11-01T15:56:11.862Z,47.53
2022-11-01T15:58:48.065Z,51.17
2022-11-01T16:01:22.033Z,52.65
2022-11-01T16:03:55.583Z,46.67
2022-11-01T16:06:27.875Z,54.88
2022-11-01T16:08:59.539Z,48.92
2022-11-01T16:11:31.286Z,47.25
2022-11-01T16:14:02.385Z,52.80
2022-11-01T16:16:59.886Z,54.03
2022-11-01T16:19:37.057Z,47.97
2022-11-01T16:22:23.624Z,47.28
2022-11-01T16:25:00.953Z,48.38
2022-11-01T16:27:39.594Z,56.90
2022-11-01T16:30:11.383Z,51.80
2022-11-01T16:32:41.166Z,47.28
2022-11-01T16:35:31.743Z,58.85
2022-11-01T16:38:00.680Z,49.35
2022-11-01T16:40:31.891Z,60.67
2022-11-01T16:43:00.877Z,56.60
2022-11-01T16:45:36.672Z,63.25
2022-11-01T16:48:06.933Z,58.03
2022-11-01T16:50:35.249Z,57.38
2022-11-01T16:53:03.503Z,55.53
2022-11-01T16:55:40.859Z,58.97
2022-11-01T16:58:15.806Z,52.80
2022-11-01T17:00:52.966Z,56.70
2022-11-01T17:03:23.533Z,56.25
2022-11-01T17:05:56.188Z,50.35
2022-11-01T17:08:29.632Z,61.45
2022-11-01T17:10:58.260Z,52.13
2022-11-01T17:13:26.530Z,57.85
2022-11-01T17:15:55.249Z,56.42
2022-11-01T17:18:30.408Z,59.15
2022-11-01T17:21:00.582Z,63.78
2022-11-01T17:23:30.183Z,64.68
2022-11-01T17:25:58.774Z,62.13
2022-11-01T17:28:27.782Z,61.25
2022-11-01T17:30:56.464Z,50.50
2022-11-01T17:33:30.037Z,57.92
2022-11-01T17:35:59.614Z,56.47
2022-11-01T17:38:32.075Z,63.88
2022-11-01T17:41:02.010Z,64.18
2022-11-01T17:43:33.718Z,60.63
2022-11-01T17:46:02.911Z,59.22
2022-11-01T17:48:32.566Z,62.53
2022-11-01T17:51:01.489Z,67.82
2022-11-01T17:53:32.616Z,63.80
2022-11-01T17:56:01.098Z,68.38
2022-11-01T17:58:29.356Z,62.80
2022-11-01T18:00:57.844Z,62.28
2022-11-01T18:03:26.910Z,61.85
2022-11-01T18:06:01.092Z,71.28
2022-11-01T18:08:48.183Z,66.07
2022-11-01T18:11:33.971Z,66.90
2022-11-01T18:14:11.783Z,73.25
2022-11-01T18:16:47.927Z,75.57
2022-11-01T18:19:44.082Z,70.22
2022-11-01T18:22:22.252Z,65.85
2022-11-01T18:24:58.596Z,67.57
2022-11-01T18:27:41.301Z,69.43
2022-11-01T18:30:20.983Z,65.53
2022-11-01T18:32:53.707Z,65.80
2022-11-01T18:35:31.901Z,70.70
2022-11-01T18:38:30.795Z,62.00
2022-11-01T18:41:03.277Z,73.25
2022-11-01T18:43:35.907Z,90.43
2022-11-01T18:46:29.120Z,97.05
2022-11-01T18:49:11.346Z,127.85
2022-11-01T18:51:56.971Z,147.00
2022-11-01T18:54:39.464Z,133.48
2022-11-01T18:57:16.880Z,166.82
2022-11-01T18:59:47.817Z,141.32
2022-11-01T19:02:30.764Z,126.97
2022-11-01T19:05:19.750Z,107.63
2022-11-01T19:08:11.758Z,94.35
2022-11-01T19:10:47.361Z,87.65
2022-11-01T19:13:33.149Z,74.13
2022-11-01T19:19:19.749Z,70.68
2022-11-01T19:21:48.431Z,76.07
2022-11-01T19:24:28.921Z,66.68
2022-11-01T19:26:59.987Z,114.80
2022-11-01T19:29:33.074Z,181.50
2022-11-01T19:32:03.516Z,105.57
2022-11-01T19:34:38.276Z,99.07
2022-11-01T19:37:23.323Z,91.30
2022-11-01T19:39:59.588Z,87.93
2022-11-01T19:42:31.951Z,85.13
2022-11-01T19:45:25.310Z,103.13
2022-11-01T19:47:53.804Z,93.28
2022-11-01T19:50:23.630Z,97.75
2022-11-01T19:52:53.276Z,77.00
2022-11-01T19:55:40.539Z,74.00
2022-11-01T19:58:39.015Z,80.30
2022-11-01T20:01:59.493Z,76.97
2022-11-01T20:04:33.374Z,75.25
2022-11-01T20:07:14.012Z,75.90
2022-11-01T20:09:42.789Z,75.97
2022-11-01T20:12:11.504Z,74.28
2022-11-01T20:14:41.214Z,73.88
2022-11-01T20:17:09.763Z,68.80
2022-11-01T20:19:38.158Z,69.35
2022-11-01T20:22:07.056Z,68.88
2022-11-01T20:24:35.882Z,64.15
2022-11-01T20:27:04.367Z,63.58
2022-11-01T20:29:32.779Z,71.00
2022-11-01T20:32:02.794Z,58.75
2022-11-01T20:34:32.126Z,61.53
2022-11-01T20:37:27.978Z,66.13
2022-11-01T20:39:49.116Z,63.67
2022-11-01T20:42:20.452Z,66.63
2022-11-01T20:44:49.050Z,74.28
2022-11-01T20:47:24.674Z,73.15
2022-11-01T20:49:53.474Z,63.20
2022-11-01T20:52:39.634Z,73.82
2022-11-01T20:55:13.835Z,86.13
2022-11-01T20:57:52.158Z,87.65
2022-11-01T21:00:27.563Z,79.40
2022-11-01T21:03:16.633Z,100.15
2022-11-01T21:05:48.099Z,98.13
2022-11-01T21:08:22.852Z,104.63
2022-11-01T21:10:59.743Z,101.22
2022-11-01T21:13:31.141Z,95.55
2022-11-01T21:16:06.449Z,91.13
2022-11-01T21:18:44.371Z,86.30
2022-11-01T21:21:45.255Z,84.10
2022-11-01T21:24:34.868Z,81.88
2022-11-01T21:30:17.221Z,99.47
2022-11-01T21:32:47.463Z,95.40
2022-11-01T21:35:42.436Z,97.13
2022-11-01T21:38:33.511Z,95.47
2022-11-01T21:41:03.929Z,94.20
2022-11-01T21:43:35.869Z,92.82
2022-11-01T21:46:15.803Z,85.45
2022-11-01T21:48:58.707Z,91.57
2022-11-01T21:51:29.671Z,108.43
2022-11-01T21:54:03.291Z,88.65
2022-11-01T21:56:34.070Z,97.28
2022-11-01T21:59:03.210Z,100.88
2022-11-01T22:01:34.645Z,105.97
2022-11-01T22:04:08.716Z,101.95
2022-11-01T22:06:39.172Z,107.28
2022-11-01T22:09:08.791Z,109.95
2022-11-01T22:11:37.859Z,90.95
2022-11-01T22:14:07.495Z,131.50
2022-11-01T22:16:43.453Z,106.15
2022-11-01T22:19:12.202Z,86.88
2022-11-01T22:21:43.152Z,104.70
2022-11-01T22:24:21.967Z,90.55
2022-11-01T22:26:51.019Z,96.50
2022-11-01T22:29:19.748Z,108.38
2022-11-01T22:31:49.919Z,111.85
2022-11-01T22:34:22.930Z,110.85
2022-11-01T22:36:55.502Z,124.38
2022-11-01T22:39:27.759Z,133.98
2022-11-01T22:42:02.532Z,156.07
2022-11-01T22:44:35.604Z,135.77
2022-11-01T22:47:06.788Z,128.30
2022-11-01T22:49:38.535Z,123.05
2022-11-01T22:52:24.608Z,134.18
2022-11-01T22:55:03.044Z,108.63
2022-11-01T22:57:36.404Z,111.03
2022-11-01T23:00:31.359Z,99.68
2022-11-01T23:03:15.050Z,96.38
2022-11-01T23:05:43.933Z,94.93
2022-11-01T23:08:34.606Z,86.85
2022-11-01T23:11:46.282Z,113.95
2022-11-01T23:14:48.934Z,87.13
2022-11-01T23:17:23.250Z,103.13
2022-11-01T23:20:05.003Z,84.82
2022-11-01T23:22:52.463Z,83.45
2022-11-01T23:25:34.667Z,70.30
2022-11-01T23:28:13.902Z,60.35
2022-11-01T23:30:45.689Z,67.43
2022-11-01T23:33:17.299Z,82.18
2022-11-01T23:35:57.388Z,62.15
2022-11-01T23:38:50.843Z,69.60
2022-11-01T23:41:30.915Z,58.50
2022-11-01T23:44:13.267Z,65.22
2022-11-01T23:50:26.867Z,69.75
2022-11-01T23:53:16.974Z,73.15
2022-11-01T23:55:50.978Z,60.63
2022-11-01T23:58:31.070Z,54.95
